sensor_id;sensor_type;location;lat;lon;timestamp;P1;durP1;ratioP1;P2;durP2;ratioP2
47335;SDS011;33068;51.990;5.926;2023-03-01T00:01:11;9.43;;;3.40;;
47335;SDS011;33068;51.990;5.926;2023-03-01T00:03:40;4.35;;;2.58;;
47335;SDS011;33068;51.990;5.926;2023-03-01T00:06:08;5.28;;;2.90;;
47335;SDS011;33068;51.990;5.926;2023-03-01T00:08:35;4.55;;;2.75;;
47335;SDS011;33068;51.990;5.926;2023-03-01T00:11:03;5.38;;;2.92;;
47335;SDS011;33068;51.990;5.926;2023-03-01T00:13:33;7.45;;;3.00;;
47335;SDS011;33068;51.990;5.926;2023-03-01T00:16:01;10.65;;;3.05;;
47335;SDS011;33068;51.990;5.926;2023-03-01T00:18:29;5.55;;;2.65;;
47335;SDS011;33068;51.990;5.926;2023-03-01T00:20:56;7.20;;;3.28;;
47335;SDS011;33068;51.990;5.926;2023-03-01T00:23:23;10.13;;;2.92;;
47335;SDS011;33068;51.990;5.926;2023-03-01T00:25:51;4.13;;;2.42;;
47335;SDS011;33068;51.990;5.926;2023-03-01T00:28:19;4.13;;;2.88;;
47335;SDS011;33068;51.990;5.926;2023-03-01T00:30:48;3.58;;;2.40;;
47335;SDS011;33068;51.990;5.926;2023-03-01T00:33:15;4.60;;;2.75;;
47335;SDS011;33068;51.990;5.926;2023-03-01T00:35:42;5.05;;;2.95;;
47335;SDS011;33068;51.990;5.926;2023-03-01T00:38:09;7.18;;;2.90;;
47335;SDS011;33068;51.990;5.926;2023-03-01T00:40:37;5.22;;;2.92;;
47335;SDS011;33068;51.990;5.926;2023-03-01T00:43:04;6.05;;;3.10;;
47335;SDS011;33068;51.990;5.926;2023-03-01T00:45:32;5.13;;;3.05;;
47335;SDS011;33068;51.990;5.926;2023-03-01T00:48:01;5.43;;;2.97;;
47335;SDS011;33068;51.990;5.926;2023-03-01T00:50:28;5.88;;;3.28;;
47335;SDS011;33068;51.990;5.926;2023-03-01T00:52:57;6.22;;;3.05;;
47335;SDS011;33068;51.990;5.926;2023-03-01T00:55:24;5.53;;;3.40;;
47335;SDS011;33068;51.990;5.926;2023-03-01T00:57:52;4.40;;;3.10;;
47335;SDS011;33068;51.990;5.926;2023-03-01T01:00:19;5.43;;;2.92;;
47335;SDS011;33068;51.990;5.926;2023-03-01T01:02:47;7.80;;;4.18;;
47335;SDS011;33068;51.990;5.926;2023-03-01T01:05:16;6.72;;;3.38;;
47335;SDS011;33068;51.990;5.926;2023-03-01T01:07:46;5.97;;;3.70;;
47335;SDS011;33068;51.990;5.926;2023-03-01T01:10:14;5.93;;;3.58;;
47335;SDS011;33068;51.990;5.926;2023-03-01T01:12:42;5.13;;;3.35;;
47335;SDS011;33068;51.990;5.926;2023-03-01T01:15:10;8.20;;;3.95;;
47335;SDS011;33068;51.990;5.926;2023-03-01T01:17:39;8.45;;;4.40;;
47335;SDS011;33068;51.990;5.926;2023-03-01T01:20:07;7.03;;;4.25;;
47335;SDS011;33068;51.990;5.926;2023-03-01T01:22:36;7.03;;;4.40;;
47335;SDS011;33068;51.990;5.926;2023-03-01T01:25:03;9.55;;;4.60;;
47335;SDS011;33068;51.990;5.926;2023-03-01T01:27:31;11.40;;;4.15;;
47335;SDS011;33068;51.990;5.926;2023-03-01T01:29:58;7.95;;;4.53;;
47335;SDS011;33068;51.990;5.926;2023-03-01T01:32:25;6.45;;;3.75;;
47335;SDS011;33068;51.990;5.926;2023-03-01T01:34:52;8.48;;;4.32;;
47335;SDS011;33068;51.990;5.926;2023-03-01T01:37:19;6.30;;;4.38;;
47335;SDS011;33068;51.990;5.926;2023-03-01T01:39:48;6.65;;;4.18;;
47335;SDS011;33068;51.990;5.926;2023-03-01T01:42:16;11.02;;;5.47;;
47335;SDS011;33068;51.990;5.926;2023-03-01T01:44:44;11.18;;;5.57;;
47335;SDS011;33068;51.990;5.926;2023-03-01T01:47:14;8.68;;;5.00;;
47335;SDS011;33068;51.990;5.926;2023-03-01T01:49:44;9.65;;;5.32;;
47335;SDS011;33068;51.990;5.926;2023-03-01T01:52:16;9.93;;;5.40;;
47335;SDS011;33068;51.990;5.926;2023-03-01T01:54:49;7.13;;;5.22;;
47335;SDS011;33068;51.990;5.926;2023-03-01T01:57:20;8.52;;;4.57;;
47335;SDS011;33068;51.990;5.926;2023-03-01T01:59:49;9.10;;;4.80;;
47335;SDS011;33068;51.990;5.926;2023-03-01T02:02:19;7.20;;;4.82;;
47335;SDS011;33068;51.990;5.926;2023-03-01T02:04:46;9.05;;;4.88;;
47335;SDS011;33068;51.990;5.926;2023-03-01T02:07:16;8.63;;;4.60;;
47335;SDS011;33068;51.990;5.926;2023-03-01T02:09:46;6.10;;;4.28;;
47335;SDS011;33068;51.990;5.926;2023-03-01T02:12:18;9.88;;;5.18;;
47335;SDS011;33068;51.990;5.926;2023-03-01T02:14:51;9.13;;;5.50;;
47335;SDS011;33068;51.990;5.926;2023-03-01T02:17:18;7.50;;;4.65;;
47335;SDS011;33068;51.990;5.926;2023-03-01T02:19:52;10.13;;;5.07;;
47335;SDS011;33068;51.990;5.926;2023-03-01T02:22:32;7.15;;;4.22;;
47335;SDS011;33068;51.990;5.926;2023-03-01T02:25:06;9.38;;;4.78;;
47335;SDS011;33068;51.990;5.926;2023-03-01T02:27:47;7.93;;;4.93;;
47335;SDS011;33068;51.990;5.926;2023-03-01T02:30:21;8.15;;;5.15;;
47335;SDS011;33068;51.990;5.926;2023-03-01T02:32:51;13.13;;;4.55;;
47335;SDS011;33068;51.990;5.926;2023-03-01T02:35:20;6.80;;;3.67;;
47335;SDS011;33068;51.990;5.926;2023-03-01T02:37:47;8.77;;;4.85;;
47335;SDS011;33068;51.990;5.926;2023-03-01T02:40:16;15.20;;;4.85;;
47335;SDS011;33068;51.990;5.926;2023-03-01T02:42:47;7.50;;;4.80;;
47335;SDS011;33068;51.990;5.926;2023-03-01T02:45:18;6.50;;;4.35;;
47335;SDS011;33068;51.990;5.926;2023-03-01T02:47:46;6.22;;;4.22;;
47335;SDS011;33068;51.990;5.926;2023-03-01T02:50:15;7.55;;;4.50;;
47335;SDS011;33068;51.990;5.926;2023-03-01T02:52:53;6.70;;;4.07;;
47335;SDS011;33068;51.990;5.926;2023-03-01T02:55:25;7.07;;;4.57;;
47335;SDS011;33068;51.990;5.926;2023-03-01T02:57:53;10.23;;;4.25;;
47335;SDS011;33068;51.990;5.926;2023-03-01T03:00:23;6.53;;;4.32;;
47335;SDS011;33068;51.990;5.926;2023-03-01T03:02:54;8.40;;;4.05;;
47335;SDS011;33068;51.990;5.926;2023-03-01T03:05:23;8.07;;;4.72;;
47335;SDS011;33068;51.990;5.926;2023-03-01T03:07:55;7.18;;;4.38;;
47335;SDS011;33068;51.990;5.926;2023-03-01T03:10:24;6.80;;;4.03;;
47335;SDS011;33068;51.990;5.926;2023-03-01T03:12:53;5.50;;;3.92;;
47335;SDS011;33068;51.990;5.926;2023-03-01T03:15:22;6.85;;;4.15;;
47335;SDS011;33068;51.990;5.926;2023-03-01T03:17:50;7.10;;;4.20;;
47335;SDS011;33068;51.990;5.926;2023-03-01T03:20:20;7.70;;;4.50;;
47335;SDS011;33068;51.990;5.926;2023-03-01T03:22:51;6.43;;;4.45;;
47335;SDS011;33068;51.990;5.926;2023-03-01T03:25:20;6.00;;;4.28;;
47335;SDS011;33068;51.990;5.926;2023-03-01T03:27:50;7.32;;;4.93;;
47335;SDS011;33068;51.990;5.926;2023-03-01T03:30:22;6.93;;;4.03;;
47335;SDS011;33068;51.990;5.926;2023-03-01T03:32:50;8.32;;;4.38;;
47335;SDS011;33068;51.990;5.926;2023-03-01T03:35:20;7.35;;;4.45;;
47335;SDS011;33068;51.990;5.926;2023-03-01T03:37:49;8.00;;;4.75;;
47335;SDS011;33068;51.990;5.926;2023-03-01T03:40:32;7.82;;;4.40;;
47335;SDS011;33068;51.990;5.926;2023-03-01T03:43:00;5.78;;;4.00;;
47335;SDS011;33068;51.990;5.926;2023-03-01T03:45:28;7.70;;;4.28;;
47335;SDS011;33068;51.990;5.926;2023-03-01T03:47:58;8.48;;;4.38;;
47335;SDS011;33068;51.990;5.926;2023-03-01T03:50:27;7.78;;;4.47;;
47335;SDS011;33068;51.990;5.926;2023-03-01T03:52:54;12.45;;;4.82;;
47335;SDS011;33068;51.990;5.926;2023-03-01T03:55:21;7.13;;;4.20;;
47335;SDS011;33068;51.990;5.926;2023-03-01T03:57:53;8.80;;;4.28;;
47335;SDS011;33068;51.990;5.926;2023-03-01T04:00:23;7.00;;;4.43;;
47335;SDS011;33068;51.990;5.926;2023-03-01T04:02:50;8.85;;;4.10;;
47335;SDS011;33068;51.990;5.926;2023-03-01T04:05:21;7.35;;;4.43;;
47335;SDS011;33068;51.990;5.926;2023-03-01T04:07:50;11.38;;;3.90;;
47335;SDS011;33068;51.990;5.926;2023-03-01T04:10:26;12.68;;;4.72;;
47335;SDS011;33068;51.990;5.926;2023-03-01T04:12:54;6.38;;;3.70;;
47335;SDS011;33068;51.990;5.926;2023-03-01T04:15:22;8.13;;;4.43;;
47335;SDS011;33068;51.990;5.926;2023-03-01T04:17:50;8.75;;;5.10;;
47335;SDS011;33068;51.990;5.926;2023-03-01T04:20:19;7.32;;;4.40;;
47335;SDS011;33068;51.990;5.926;2023-03-01T04:22:52;6.80;;;4.43;;
47335;SDS011;33068;51.990;5.926;2023-03-01T04:25:23;8.50;;;4.40;;
47335;SDS011;33068;51.990;5.926;2023-03-01T04:27:51;9.30;;;4.93;;
47335;SDS011;33068;51.990;5.926;2023-03-01T04:30:18;6.65;;;4.75;;
47335;SDS011;33068;51.990;5.926;2023-03-01T04:32:50;7.35;;;4.45;;
47335;SDS011;33068;51.990;5.926;2023-03-01T04:35:17;8.52;;;4.68;;
47335;SDS011;33068;51.990;5.926;2023-03-01T04:37:44;7.28;;;4.32;;
47335;SDS011;33068;51.990;5.926;2023-03-01T04:40:13;7.53;;;4.28;;
47335;SDS011;33068;51.990;5.926;2023-03-01T04:42:41;8.55;;;4.38;;
47335;SDS011;33068;51.990;5.926;2023-03-01T04:45:09;7.57;;;3.95;;
47335;SDS011;33068;51.990;5.926;2023-03-01T04:47:38;9.27;;;3.85;;
47335;SDS011;33068;51.990;5.926;2023-03-01T04:50:07;5.68;;;3.75;;
47335;SDS011;33068;51.990;5.926;2023-03-01T04:52:35;5.25;;;3.72;;
47335;SDS011;33068;51.990;5.926;2023-03-01T04:55:02;6.30;;;3.63;;
47335;SDS011;33068;51.990;5.926;2023-03-01T04:57:31;6.70;;;3.60;;
47335;SDS011;33068;51.990;5.926;2023-03-01T04:59:58;6.38;;;3.70;;
47335;SDS011;33068;51.990;5.926;2023-03-01T05:02:25;7.22;;;4.05;;
47335;SDS011;33068;51.990;5.926;2023-03-01T05:04:52;6.15;;;3.10;;
47335;SDS011;33068;51.990;5.926;2023-03-01T05:07:22;10.80;;;3.95;;
47335;SDS011;33068;51.990;5.926;2023-03-01T05:09:51;6.20;;;3.97;;
47335;SDS011;33068;51.990;5.926;2023-03-01T05:12:19;8.40;;;3.83;;
47335;SDS011;33068;51.990;5.926;2023-03-01T05:14:50;7.65;;;4.05;;
47335;SDS011;33068;51.990;5.926;2023-03-01T05:17:17;6.70;;;3.90;;
47335;SDS011;33068;51.990;5.926;2023-03-01T05:19:44;7.45;;;4.05;;
47335;SDS011;33068;51.990;5.926;2023-03-01T05:22:11;5.95;;;4.03;;
47335;SDS011;33068;51.990;5.926;2023-03-01T05:24:38;7.97;;;4.45;;
47335;SDS011;33068;51.990;5.926;2023-03-01T05:27:05;6.90;;;3.85;;
47335;SDS011;33068;51.990;5.926;2023-03-01T05:29:32;8.30;;;4.30;;
47335;SDS011;33068;51.990;5.926;2023-03-01T05:32:01;9.48;;;4.93;;
47335;SDS011;33068;51.990;5.926;2023-03-01T05:34:29;7.07;;;4.18;;
47335;SDS011;33068;51.990;5.926;2023-03-01T05:36:59;6.53;;;3.88;;
47335;SDS011;33068;51.990;5.926;2023-03-01T05:39:27;17.58;;;4.97;;
47335;SDS011;33068;51.990;5.926;2023-03-01T05:41:55;8.07;;;5.22;;
47335;SDS011;33068;51.990;5.926;2023-03-01T05:44:24;9.38;;;4.22;;
47335;SDS011;33068;51.990;5.926;2023-03-01T05:46:52;7.45;;;4.65;;
47335;SDS011;33068;51.990;5.926;2023-03-01T05:49:20;9.98;;;4.82;;
47335;SDS011;33068;51.990;5.926;2023-03-01T05:51:52;10.85;;;4.75;;
47335;SDS011;33068;51.990;5.926;2023-03-01T05:54:20;8.63;;;4.78;;
47335;SDS011;33068;51.990;5.926;2023-03-01T05:56:48;7.95;;;4.43;;
47335;SDS011;33068;51.990;5.926;2023-03-01T05:59:15;6.65;;;4.57;;
47335;SDS011;33068;51.990;5.926;2023-03-01T06:01:42;11.65;;;4.50;;
47335;SDS011;33068;51.990;5.926;2023-03-01T06:04:09;6.38;;;4.32;;
47335;SDS011;33068;51.990;5.926;2023-03-01T06:06:38;6.63;;;4.43;;
47335;SDS011;33068;51.990;5.926;2023-03-01T06:09:05;6.78;;;4.07;;
47335;SDS011;33068;51.990;5.926;2023-03-01T06:11:34;9.68;;;4.63;;
47335;SDS011;33068;51.990;5.926;2023-03-01T06:14:02;8.88;;;4.20;;
47335;SDS011;33068;51.990;5.926;2023-03-01T06:16:29;7.32;;;4.43;;
47335;SDS011;33068;51.990;5.926;2023-03-01T06:18:56;7.88;;;4.88;;
47335;SDS011;33068;51.990;5.926;2023-03-01T06:21:23;6.55;;;4.10;;
47335;SDS011;33068;51.990;5.926;2023-03-01T06:23:52;8.45;;;4.60;;
47335;SDS011;33068;51.990;5.926;2023-03-01T06:26:19;9.23;;;4.22;;
47335;SDS011;33068;51.990;5.926;2023-03-01T06:28:46;10.27;;;4.40;;
47335;SDS011;33068;51.990;5.926;2023-03-01T06:31:13;7.75;;;4.78;;
47335;SDS011;33068;51.990;5.926;2023-03-01T06:33:40;6.95;;;4.40;;
47335;SDS011;33068;51.990;5.926;2023-03-01T06:36:09;6.65;;;4.22;;
47335;SDS011;33068;51.990;5.926;2023-03-01T06:38:37;12.13;;;4.43;;
47335;SDS011;33068;51.990;5.926;2023-03-01T06:41:07;10.27;;;5.15;;
47335;SDS011;33068;51.990;5.926;2023-03-01T06:43:34;13.13;;;5.03;;
47335;SDS011;33068;51.990;5.926;2023-03-01T06:46:03;14.43;;;6.03;;
47335;SDS011;33068;51.990;5.926;2023-03-01T06:48:31;8.43;;;5.07;;
47335;SDS011;33068;51.990;5.926;2023-03-01T06:50:59;8.90;;;4.95;;
47335;SDS011;33068;51.990;5.926;2023-03-01T06:53:27;10.95;;;4.72;;
47335;SDS011;33068;51.990;5.926;2023-03-01T06:55:55;8.98;;;5.35;;
47335;SDS011;33068;51.990;5.926;2023-03-01T06:58:23;8.70;;;5.07;;
47335;SDS011;33068;51.990;5.926;2023-03-01T07:00:50;11.30;;;5.82;;
47335;SDS011;33068;51.990;5.926;2023-03-01T07:03:18;11.38;;;5.10;;
47335;SDS011;33068;51.990;5.926;2023-03-01T07:05:45;9.57;;;4.97;;
47335;SDS011;33068;51.990;5.926;2023-03-01T07:08:14;10.88;;;5.30;;
47335;SDS011;33068;51.990;5.926;2023-03-01T07:10:41;12.52;;;5.25;;
47335;SDS011;33068;51.990;5.926;2023-03-01T07:13:08;10.15;;;5.75;;
47335;SDS011;33068;51.990;5.926;2023-03-01T07:15:37;8.20;;;5.07;;
47335;SDS011;33068;51.990;5.926;2023-03-01T07:18:06;9.25;;;4.80;;
47335;SDS011;33068;51.990;5.926;2023-03-01T07:20:33;13.10;;;5.72;;
47335;SDS011;33068;51.990;5.926;2023-03-01T07:23:01;9.60;;;5.18;;
47335;SDS011;33068;51.990;5.926;2023-03-01T07:25:28;9.23;;;5.50;;
47335;SDS011;33068;51.990;5.926;2023-03-01T07:27:55;11.50;;;5.55;;
47335;SDS011;33068;51.990;5.926;2023-03-01T07:30:22;9.43;;;5.38;;
47335;SDS011;33068;51.990;5.926;2023-03-01T07:32:52;8.68;;;5.65;;
47335;SDS011;33068;51.990;5.926;2023-03-01T07:35:19;9.45;;;5.40;;
47335;SDS011;33068;51.990;5.926;2023-03-01T07:37:47;9.15;;;5.68;;
47335;SDS011;33068;51.990;5.926;2023-03-01T07:40:14;9.13;;;5.53;;
47335;SDS011;33068;51.990;5.926;2023-03-01T07:42:41;9.93;;;4.68;;
47335;SDS011;33068;51.990;5.926;2023-03-01T07:45:09;6.80;;;4.18;;
47335;SDS011;33068;51.990;5.926;2023-03-01T07:47:36;7.97;;;5.00;;
47335;SDS011;33068;51.990;5.926;2023-03-01T07:50:05;8.73;;;4.65;;
47335;SDS011;33068;51.990;5.926;2023-03-01T07:52:33;8.23;;;4.55;;
47335;SDS011;33068;51.990;5.926;2023-03-01T07:55:00;7.53;;;4.00;;
47335;SDS011;33068;51.990;5.926;2023-03-01T07:57:27;9.48;;;5.47;;
47335;SDS011;33068;51.990;5.926;2023-03-01T07:59:54;5.28;;;3.88;;
47335;SDS011;33068;51.990;5.926;2023-03-01T08:02:21;9.85;;;4.78;;
47335;SDS011;33068;51.990;5.926;2023-03-01T08:04:48;9.98;;;5.00;;
47335;SDS011;33068;51.990;5.926;2023-03-01T08:07:17;7.38;;;4.43;;
47335;SDS011;33068;51.990;5.926;2023-03-01T08:09:44;12.48;;;5.47;;
47335;SDS011;33068;51.990;5.926;2023-03-01T08:12:11;11.38;;;4.60;;
47335;SDS011;33068;51.990;5.926;2023-03-01T08:14:38;8.20;;;5.05;;
47335;SDS011;33068;51.990;5.926;2023-03-01T08:17:05;13.32;;;4.78;;
47335;SDS011;33068;51.990;5.926;2023-03-01T08:19:32;8.35;;;4.85;;
47335;SDS011;33068;51.990;5.926;2023-03-01T08:21:59;8.32;;;5.20;;
47335;SDS011;33068;51.990;5.926;2023-03-01T08:24:29;9.18;;;4.70;;
47335;SDS011;33068;51.990;5.926;2023-03-01T08:26:56;9.80;;;4.18;;
47335;SDS011;33068;51.990;5.926;2023-03-01T08:29:23;8.80;;;4.78;;
47335;SDS011;33068;51.990;5.926;2023-03-01T08:31:50;8.90;;;4.50;;
47335;SDS011;33068;51.990;5.926;2023-03-01T08:34:17;8.68;;;4.88;;
47335;SDS011;33068;51.990;5.926;2023-03-01T08:36:45;11.57;;;4.75;;
47335;SDS011;33068;51.990;5.926;2023-03-01T08:39:13;16.83;;;4.72;;
47335;SDS011;33068;51.990;5.926;2023-03-01T08:41:43;9.48;;;4.75;;
47335;SDS011;33068;51.990;5.926;2023-03-01T08:44:10;14.02;;;4.45;;
47335;SDS011;33068;51.990;5.926;2023-03-01T08:46:40;7.47;;;4.35;;
47335;SDS011;33068;51.990;5.926;2023-03-01T08:49:08;8.98;;;4.15;;
47335;SDS011;33068;51.990;5.926;2023-03-01T08:51:37;7.25;;;3.60;;
47335;SDS011;33068;51.990;5.926;2023-03-01T08:54:05;7.07;;;4.28;;
47335;SDS011;33068;51.990;5.926;2023-03-01T08:56:34;7.10;;;3.55;;
47335;SDS011;33068;51.990;5.926;2023-03-01T08:59:02;6.07;;;3.58;;
47335;SDS011;33068;51.990;5.926;2023-03-01T09:01:29;8.00;;;3.80;;
47335;SDS011;33068;51.990;5.926;2023-03-01T09:03:57;7.20;;;3.90;;
47335;SDS011;33068;51.990;5.926;2023-03-01T09:06:24;7.88;;;4.18;;
47335;SDS011;33068;51.990;5.926;2023-03-01T09:08:51;10.20;;;3.80;;
47335;SDS011;33068;51.990;5.926;2023-03-01T09:11:20;7.20;;;4.05;;
47335;SDS011;33068;51.990;5.926;2023-03-01T09:13:48;9.27;;;3.60;;
47335;SDS011;33068;51.990;5.926;2023-03-01T09:16:18;7.07;;;3.20;;
47335;SDS011;33068;51.990;5.926;2023-03-01T09:18:48;6.45;;;3.63;;
47335;SDS011;33068;51.990;5.926;2023-03-01T09:21:16;7.13;;;3.75;;
47335;SDS011;33068;51.990;5.926;2023-03-01T09:23:46;5.05;;;3.00;;
47335;SDS011;33068;51.990;5.926;2023-03-01T09:26:15;5.38;;;3.42;;
47335;SDS011;33068;51.990;5.926;2023-03-01T09:28:44;8.80;;;3.45;;
47335;SDS011;33068;51.990;5.926;2023-03-01T09:31:12;7.25;;;3.47;;
47335;SDS011;33068;51.990;5.926;2023-03-01T09:33:41;6.68;;;3.80;;
47335;SDS011;33068;51.990;5.926;2023-03-01T09:36:10;5.25;;;3.40;;
47335;SDS011;33068;51.990;5.926;2023-03-01T09:38:39;8.75;;;4.50;;
47335;SDS011;33068;51.990;5.926;2023-03-01T09:41:09;8.77;;;4.85;;
47335;SDS011;33068;51.990;5.926;2023-03-01T09:43:43;8.23;;;4.65;;
47335;SDS011;33068;51.990;5.926;2023-03-01T09:46:14;9.48;;;5.18;;
47335;SDS011;33068;51.990;5.926;2023-03-01T09:48:44;9.18;;;4.80;;
47335;SDS011;33068;51.990;5.926;2023-03-01T09:51:17;7.65;;;4.50;;
47335;SDS011;33068;51.990;5.926;2023-03-01T09:53:48;7.07;;;4.80;;
47335;SDS011;33068;51.990;5.926;2023-03-01T09:56:17;8.32;;;4.93;;
47335;SDS011;33068;51.990;5.926;2023-03-01T09:58:49;10.77;;;5.18;;
47335;SDS011;33068;51.990;5.926;2023-03-01T10:01:27;7.28;;;5.03;;
47335;SDS011;33068;51.990;5.926;2023-03-01T10:04:13;8.73;;;4.78;;
47335;SDS011;33068;51.990;5.926;2023-03-01T10:06:56;10.95;;;6.28;;
47335;SDS011;33068;51.990;5.926;2023-03-01T10:09:33;14.15;;;6.47;;
47335;SDS011;33068;51.990;5.926;2023-03-01T10:12:02;11.13;;;7.10;;
47335;SDS011;33068;51.990;5.926;2023-03-01T10:14:35;9.40;;;5.55;;
47335;SDS011;33068;51.990;5.926;2023-03-01T10:17:05;8.85;;;5.35;;
47335;SDS011;33068;51.990;5.926;2023-03-01T10:19:47;7.72;;;4.68;;
47335;SDS011;33068;51.990;5.926;2023-03-01T10:22:15;9.93;;;4.75;;
47335;SDS011;33068;51.990;5.926;2023-03-01T10:24:46;11.27;;;4.65;;
47335;SDS011;33068;51.990;5.926;2023-03-01T10:27:15;6.07;;;3.67;;
47335;SDS011;33068;51.990;5.926;2023-03-01T10:29:48;6.82;;;3.90;;
47335;SDS011;33068;51.990;5.926;2023-03-01T10:32:22;9.75;;;4.93;;
47335;SDS011;33068;51.990;5.926;2023-03-01T10:34:51;8.05;;;4.47;;
47335;SDS011;33068;51.990;5.926;2023-03-01T10:37:18;8.00;;;3.67;;
47335;SDS011;33068;51.990;5.926;2023-03-01T10:39:56;5.82;;;3.72;;
47335;SDS011;33068;51.990;5.926;2023-03-01T10:42:28;12.88;;;3.95;;
47335;SDS011;33068;51.990;5.926;2023-03-01T10:44:57;10.32;;;4.40;;
47335;SDS011;33068;51.990;5.926;2023-03-01T10:47:40;6.88;;;3.63;;
47335;SDS011;33068;51.990;5.926;2023-03-01T10:50:18;6.28;;;3.30;;
47335;SDS011;33068;51.990;5.926;2023-03-01T10:52:55;8.77;;;4.00;;
47335;SDS011;33068;51.990;5.926;2023-03-01T10:55:29;4.38;;;3.33;;
47335;SDS011;33068;51.990;5.926;2023-03-01T10:58:08;9.38;;;4.40;;
47335;SDS011;33068;51.990;5.926;2023-03-01T11:00:48;8.93;;;4.20;;
47335;SDS011;33068;51.990;5.926;2023-03-01T11:03:18;5.13;;;3.17;;
47335;SDS011;33068;51.990;5.926;2023-03-01T11:05:57;6.03;;;3.45;;
47335;SDS011;33068;51.990;5.926;2023-03-01T11:08:30;4.60;;;3.20;;
47335;SDS011;33068;51.990;5.926;2023-03-01T11:11:22;4.40;;;3.15;;
47335;SDS011;33068;51.990;5.926;2023-03-01T11:13:56;5.10;;;3.05;;
47335;SDS011;33068;51.990;5.926;2023-03-01T11:16:26;10.70;;;4.10;;
47335;SDS011;33068;51.990;5.926;2023-03-01T11:18:56;5.55;;;3.20;;
47335;SDS011;33068;51.990;5.926;2023-03-01T11:21:25;4.88;;;3.20;;
47335;SDS011;33068;51.990;5.926;2023-03-01T11:23:55;6.95;;;3.20;;
47335;SDS011;33068;51.990;5.926;2023-03-01T11:26:24;4.82;;;3.33;;
47335;SDS011;33068;51.990;5.926;2023-03-01T11:28:53;6.70;;;3.47;;
47335;SDS011;33068;51.990;5.926;2023-03-01T11:31:24;7.32;;;3.80;;
47335;SDS011;33068;51.990;5.926;2023-03-01T11:33:53;6.18;;;3.85;;
47335;SDS011;33068;51.990;5.926;2023-03-01T11:36:26;6.43;;;4.00;;
47335;SDS011;33068;51.990;5.926;2023-03-01T11:38:57;6.22;;;3.42;;
47335;SDS011;33068;51.990;5.926;2023-03-01T11:41:39;7.75;;;3.78;;
47335;SDS011;33068;51.990;5.926;2023-03-01T11:44:10;5.30;;;3.72;;
47335;SDS011;33068;51.990;5.926;2023-03-01T11:47:03;5.97;;;3.25;;
47335;SDS011;33068;51.990;5.926;2023-03-01T11:49:49;4.88;;;3.15;;
47335;SDS011;33068;51.990;5.926;2023-03-01T11:52:31;11.48;;;3.88;;
47335;SDS011;33068;51.990;5.926;2023-03-01T11:55:17;5.45;;;3.20;;
47335;SDS011;33068;51.990;5.926;2023-03-01T11:58:14;9.50;;;4.32;;
47335;SDS011;33068;51.990;5.926;2023-03-01T12:01:07;6.50;;;3.65;;
47335;SDS011;33068;51.990;5.926;2023-03-01T12:03:51;4.60;;;3.10;;
47335;SDS011;33068;51.990;5.926;2023-03-01T12:06:46;6.32;;;3.80;;
47335;SDS011;33068;51.990;5.926;2023-03-01T12:09:23;8.27;;;3.90;;
47335;SDS011;33068;51.990;5.926;2023-03-01T12:12:07;7.70;;;4.20;;
47335;SDS011;33068;51.990;5.926;2023-03-01T12:15:05;8.93;;;4.22;;
47335;SDS011;33068;51.990;5.926;2023-03-01T12:17:57;7.10;;;3.55;;
47335;SDS011;33068;51.990;5.926;2023-03-01T12:20:35;8.98;;;3.78;;
47335;SDS011;33068;51.990;5.926;2023-03-01T12:23:21;7.03;;;4.07;;
47335;SDS011;33068;51.990;5.926;2023-03-01T12:26:01;6.47;;;3.80;;
47335;SDS011;33068;51.990;5.926;2023-03-01T12:28:44;8.80;;;4.32;;
47335;SDS011;33068;51.990;5.926;2023-03-01T12:31:32;6.22;;;4.07;;
47335;SDS011;33068;51.990;5.926;2023-03-01T12:34:14;6.07;;;3.90;;
47335;SDS011;33068;51.990;5.926;2023-03-01T12:36:55;8.55;;;4.57;;
47335;SDS011;33068;51.990;5.926;2023-03-01T12:39:45;4.40;;;2.83;;
47335;SDS011;33068;51.990;5.926;2023-03-01T12:42:23;9.38;;;3.72;;
47335;SDS011;33068;51.990;5.926;2023-03-01T12:45:02;6.65;;;4.13;;
47335;SDS011;33068;51.990;5.926;2023-03-01T12:47:51;5.28;;;3.13;;
47335;SDS011;33068;51.990;5.926;2023-03-01T12:50:29;5.00;;;3.55;;
47335;SDS011;33068;51.990;5.926;2023-03-01T12:53:07;6.40;;;3.40;;
47335;SDS011;33068;51.990;5.926;2023-03-01T12:55:45;7.90;;;3.05;;
47335;SDS011;33068;51.990;5.926;2023-03-01T12:58:17;5.90;;;3.20;;
47335;SDS011;33068;51.990;5.926;2023-03-01T13:00:53;4.47;;;2.45;;
47335;SDS011;33068;51.990;5.926;2023-03-01T13:03:34;5.65;;;3.22;;
47335;SDS011;33068;51.990;5.926;2023-03-01T13:06:24;7.15;;;3.08;;
47335;SDS011;33068;51.990;5.926;2023-03-01T13:09:04;7.30;;;3.08;;
47335;SDS011;33068;51.990;5.926;2023-03-01T13:11:40;7.25;;;3.33;;
47335;SDS011;33068;51.990;5.926;2023-03-01T13:17:04;6.78;;;2.60;;
47335;SDS011;33068;51.990;5.926;2023-03-01T13:19:56;6.70;;;3.45;;
47335;SDS011;33068;51.990;5.926;2023-03-01T13:22:25;5.22;;;3.42;;
47335;SDS011;33068;51.990;5.926;2023-03-01T13:27:45;3.97;;;2.97;;
47335;SDS011;33068;51.990;5.926;2023-03-01T13:36:06;7.32;;;3.47;;
47335;SDS011;33068;51.990;5.926;2023-03-01T13:38:37;7.18;;;3.22;;
47335;SDS011;33068;51.990;5.926;2023-03-01T13:41:11;5.72;;;3.45;;
47335;SDS011;33068;51.990;5.926;2023-03-01T13:43:40;5.75;;;3.17;;
47335;SDS011;33068;51.990;5.926;2023-03-01T13:46:11;6.32;;;2.90;;
47335;SDS011;33068;51.990;5.926;2023-03-01T13:48:43;7.88;;;3.25;;
47335;SDS011;33068;51.990;5.926;2023-03-01T13:51:13;8.23;;;3.67;;
47335;SDS011;33068;51.990;5.926;2023-03-01T13:53:42;6.32;;;2.97;;
47335;SDS011;33068;51.990;5.926;2023-03-01T13:56:12;5.13;;;3.05;;
47335;SDS011;33068;51.990;5.926;2023-03-01T13:58:44;6.15;;;3.50;;
47335;SDS011;33068;51.990;5.926;2023-03-01T14:01:26;5.80;;;3.15;;
47335;SDS011;33068;51.990;5.926;2023-03-01T14:03:55;7.32;;;3.38;;
47335;SDS011;33068;51.990;5.926;2023-03-01T14:06:23;7.40;;;3.50;;
47335;SDS011;33068;51.990;5.926;2023-03-01T14:08:52;5.13;;;3.50;;
47335;SDS011;33068;51.990;5.926;2023-03-01T14:11:40;5.25;;;3.05;;
47335;SDS011;33068;51.990;5.926;2023-03-01T14:14:27;6.57;;;3.67;;
47335;SDS011;33068;51.990;5.926;2023-03-01T14:17:28;5.90;;;3.78;;
47335;SDS011;33068;51.990;5.926;2023-03-01T14:20:07;6.68;;;3.70;;
47335;SDS011;33068;51.990;5.926;2023-03-01T14:22:39;7.18;;;3.25;;
47335;SDS011;33068;51.990;5.926;2023-03-01T14:25:17;6.07;;;3.95;;
47335;SDS011;33068;51.990;5.926;2023-03-01T14:27:50;10.77;;;3.83;;
47335;SDS011;33068;51.990;5.926;2023-03-01T14:30:21;5.93;;;3.33;;
47335;SDS011;33068;51.990;5.926;2023-03-01T14:32:53;5.65;;;3.22;;
47335;SDS011;33068;51.990;5.926;2023-03-01T14:35:23;6.60;;;3.70;;
47335;SDS011;33068;51.990;5.926;2023-03-01T14:37:52;5.88;;;3.53;;
47335;SDS011;33068;51.990;5.926;2023-03-01T14:40:21;5.68;;;3.42;;
47335;SDS011;33068;51.990;5.926;2023-03-01T14:42:50;8.65;;;3.38;;
47335;SDS011;33068;51.990;5.926;2023-03-01T14:45:18;6.20;;;3.47;;
47335;SDS011;33068;51.990;5.926;2023-03-01T14:47:46;5.15;;;3.22;;
47335;SDS011;33068;51.990;5.926;2023-03-01T14:50:20;4.50;;;3.17;;
47335;SDS011;33068;51.990;5.926;2023-03-01T14:52:54;5.35;;;3.00;;
47335;SDS011;33068;51.990;5.926;2023-03-01T14:55:25;5.50;;;3.28;;
47335;SDS011;33068;51.990;5.926;2023-03-01T14:57:55;6.50;;;3.28;;
47335;SDS011;33068;51.990;5.926;2023-03-01T15:00:24;8.75;;;3.17;;
47335;SDS011;33068;51.990;5.926;2023-03-01T15:02:54;8.27;;;3.25;;
47335;SDS011;33068;51.990;5.926;2023-03-01T15:05:25;4.57;;;2.80;;
47335;SDS011;33068;51.990;5.926;2023-03-01T15:07:55;5.78;;;2.92;;
47335;SDS011;33068;51.990;5.926;2023-03-01T15:10:24;4.68;;;3.33;;
47335;SDS011;33068;51.990;5.926;2023-03-01T15:12:53;4.45;;;3.10;;
47335;SDS011;33068;51.990;5.926;2023-03-01T15:15:31;7.10;;;3.50;;
47335;SDS011;33068;51.990;5.926;2023-03-01T15:18:01;3.95;;;2.92;;
47335;SDS011;33068;51.990;5.926;2023-03-01T15:20:33;7.30;;;3.20;;